Time;durP1;ratioP1;P1;durP2;ratioP2;P2;SDS_P1;SDS_P2;PMS_P1;PMS_P2;Temp;Humidity;BMP_temperature;BMP_pressure;BME280_temperature;BME280_humidity;BME280_pressure;Samples;Min_cycle;Max_cycle;Signal;HPM_P1;HPM_P2
2022/05/10 00:00:55;;;;;;;4.30;2.08;;;21.60;47.10;;;;;;5099759;28;20047;-69
2022/05/10 00:03:22;;;;;;;4.18;1.60;;;21.60;47.10;;;;;;5089859;28;20457;-71
2022/05/10 00:05:48;;;;;;;4.43;1.90;;;21.60;47.10;;;;;;5097585;28;20100;-69
2022/05/10 00:08:16;;;;;;;4.38;1.90;;;21.60;47.10;;;;;;5090157;28;20055;-70
2022/05/10 00:10:42;;;;;;;;;;;21.50;47.00;;;;;;5094429;28;20039;-68
2022/05/10 00:13:08;;;;;;;3.45;1.80;;;21.50;47.00;;;;;;5105089;28;19959;-69
2022/05/10 00:15:34;;;;;;;4.68;1.90;;;21.50;47.00;;;;;;5095317;28;20119;-73
2022/05/10 00:18:00;;;;;;;3.97;1.73;;;21.50;47.00;;;;;;5105208;28;20052;-70
2022/05/10 00:20:26;;;;;;;4.60;1.75;;;21.50;47.00;;;;;;5102682;28;20529;-69
2022/05/10 00:22:52;;;;;;;4.20;1.60;;;21.50;47.00;;;;;;5093826;28;20044;-70
2022/05/10 00:25:22;;;;;;;3.30;1.70;;;21.50;47.10;;;;;;5091845;28;20040;-69
2022/05/10 00:27:48;;;;;;;2.45;1.50;;;21.50;47.10;;;;;;5088288;28;20039;-69
2022/05/10 00:30:14;;;;;;;3.40;1.83;;;21.50;47.10;;;;;;5100991;28;20058;-72
2022/05/10 00:32:40;;;;;;;3.35;1.98;;;21.50;47.10;;;;;;5092422;28;20044;-69
2022/05/10 00:35:15;;;;;;;3.47;1.80;;;21.50;47.10;;;;;;5086344;28;20077;-69
2022/05/10 00:37:42;;;;;;;3.67;1.83;;;21.50;47.00;;;;;;5102441;28;20032;-69
2022/05/10 00:40:08;;;;;;;3.55;1.80;;;21.50;47.10;;;;;;5104692;28;20071;-70
2022/05/10 00:42:47;;;;;;;3.83;2.00;;;21.50;47.10;;;;;;5087606;28;20046;-70
2022/05/10 00:45:16;;;;;;;3.10;1.73;;;21.40;47.10;;;;;;5103711;28;20048;-70
2022/05/10 00:47:51;;;;;;;3.58;1.92;;;21.40;47.10;;;;;;5107334;28;20063;-70
2022/05/10 00:50:32;;;;;;;2.83;1.88;;;21.40;47.00;;;;;;5102353;28;20533;-78
2022/05/10 00:53:02;;;;;;;3.60;1.63;;;21.40;47.00;;;;;;5110845;28;20040;-69
2022/05/10 00:55:33;;;;;;;4.63;1.92;;;21.40;47.10;;;;;;5104465;28;20115;-70
2022/05/10 00:58:21;;;;;;;3.80;1.58;;;21.40;47.10;;;;;;5089755;28;20067;-72
2022/05/10 01:00:47;;;;;;;6.28;1.77;;;21.40;47.00;;;;;;5098616;28;20036;-69
2022/05/10 01:03:28;;;;;;;3.20;1.70;;;21.40;47.10;;;;;;5106862;28;20101;-69
2022/05/10 01:06:08;;;;;;;3.47;1.40;;;21.40;47.00;;;;;;5097218;28;20526;-70
2022/05/10 01:08:50;;;;;;;3.42;1.60;;;21.40;47.00;;;;;;5069307;28;20076;-69
2022/05/10 01:11:25;;;;;;;5.05;1.70;;;21.40;47.10;;;;;;5106460;27;20048;-70
2022/05/10 01:14:11;;;;;;;2.88;1.60;;;21.40;47.10;;;;;;5107926;28;20127;-69
2022/05/10 01:16:37;;;;;;;2.60;1.73;;;21.30;47.00;;;;;;5092062;28;20048;-70
2022/05/10 01:19:02;;;;;;;2.92;1.85;;;21.40;47.10;;;;;;5092008;28;20080;-70
2022/05/10 01:22:14;;;;;;;2.95;1.73;;;21.40;47.20;;;;;;5104860;28;20054;-71
2022/05/10 01:25:07;;;;;;;4.30;1.95;;;21.30;47.30;;;;;;5069006;28;20395;-72
2022/05/10 01:27:32;;;;;;;2.28;1.70;;;21.30;47.30;;;;;;5096887;28;20040;-68
2022/05/10 01:30:15;;;;;;;4.18;1.60;;;21.30;47.30;;;;;;5086887;28;20599;-72
2022/05/10 01:35:51;;;;;;;3.13;1.60;;;21.30;47.10;;;;;;5072094;28;20047;-71
2022/05/10 01:38:42;;;;;;;4.20;1.63;;;21.30;47.10;;;;;;5105777;28;20392;-70
2022/05/10 01:41:46;;;;;;;2.33;1.60;;;21.30;47.10;;;;;;5105395;28;20043;-72
2022/05/10 01:44:34;;;;;;;4.00;1.98;;;21.30;47.10;;;;;;5104185;28;20056;-72
2022/05/10 01:47:09;;;;;;;4.68;1.60;;;21.30;47.10;;;;;;5084940;28;20108;-72
2022/05/10 01:50:00;;;;;;;3.10;1.70;;;21.30;47.10;;;;;;5107862;28;20040;-70
2022/05/10 01:52:39;;;;;;;4.18;1.77;;;21.30;47.10;;;;;;5093541;28;20138;-76
2022/05/10 01:55:12;;;;;;;2.90;1.67;;;21.30;47.10;;;;;;5106734;28;20388;-71
2022/05/10 01:57:38;;;;;;;3.08;1.60;;;21.30;47.10;;;;;;5103078;28;20055;-70
2022/05/10 02:00:18;;;;;;;3.60;1.63;;;21.30;47.90;;;;;;5105992;28;20052;-75
2022/05/10 02:03:22;;;;;;;2.35;1.48;;;21.30;47.20;;;;;;5093835;28;20516;-76
2022/05/10 02:05:57;;;;;;;2.83;1.70;;;21.30;47.20;;;;;;5107886;28;20043;-73
2022/05/10 02:08:55;;;;;;;4.72;1.88;;;21.30;47.20;;;;;;5088644;28;20048;-77
2022/05/10 02:11:20;;;;;;;2.58;1.50;;;21.30;47.20;;;;;;5107927;27;20377;-73
2022/05/10 02:13:53;;;;;;;2.90;1.63;;;21.20;47.20;;;;;;5103411;28;20073;-71
2022/05/10 02:16:30;;;;;;;3.03;1.65;;;21.30;47.20;;;;;;5101631;28;20134;-74
2022/05/10 02:19:07;;;;;;;4.17;1.90;;;21.20;47.20;;;;;;5096148;28;20046;-74
2022/05/10 02:21:38;;;;;;;4.88;1.70;;;21.20;47.20;;;;;;5102980;28;20040;-73
2022/05/10 02:24:26;;;;;;;2.75;1.60;;;21.20;47.20;;;;;;5088457;28;20502;-70
2022/05/10 02:27:01;;;;;;;3.33;1.73;;;21.20;47.20;;;;;;5089708;28;20028;-71
2022/05/10 02:29:33;;;;;;;2.85;1.70;;;21.20;47.20;;;;;;5104729;28;20755;-70
2022/05/10 02:34:50;;;;;;;2.47;1.50;;;21.20;47.20;;;;;;5105565;28;20436;-70
2022/05/10 02:37:15;;;;;;;2.28;1.70;;;21.20;47.30;;;;;;5101999;28;20048;-70
2022/05/10 02:39:41;;;;;;;4.22;1.88;;;21.20;47.30;;;;;;5103148;28;20031;-69
2022/05/10 02:42:09;;;;;;;3.50;1.70;;;21.20;47.30;;;;;;5095080;28;20032;-71
2022/05/10 02:44:39;;;;;;;3.90;1.80;;;21.20;47.20;;;;;;5084306;28;20388;-70
2022/05/10 02:47:08;;;;;;;2.50;1.90;;;21.20;47.30;;;;;;5091104;28;20439;-69
2022/05/10 02:49:36;;;;;;;2.63;1.85;;;21.20;47.30;;;;;;5102398;28;20044;-69
2022/05/10 02:52:03;;;;;;;4.20;1.88;;;21.20;47.30;;;;;;5103948;28;20571;-69
2022/05/10 02:54:28;;;;;;;3.58;1.95;;;21.20;47.30;;;;;;5107936;28;20051;-69
2022/05/10 02:56:54;;;;;;;2.22;1.80;;;21.10;47.30;;;;;;5092134;28;20419;-69
2022/05/10 02:59:29;;;;;;;3.03;2.05;;;21.20;47.40;;;;;;5098903;28;20134;-69
2022/05/10 03:02:08;;;;;;;2.75;1.80;;;21.20;47.30;;;;;;5100222;28;20697;-69
2022/05/10 03:04:40;;;;;;;3.70;1.88;;;21.20;47.30;;;;;;5064839;28;20100;-69
2022/05/10 03:07:08;;;;;;;3.50;2.08;;;21.20;47.30;;;;;;5065396;28;20125;-70
2022/05/10 03:09:33;;;;;;;2.43;1.90;;;21.10;47.30;;;;;;5097819;28;20048;-71
2022/05/10 03:12:01;;;;;;;2.55;1.70;;;21.10;47.30;;;;;;5093751;28;20669;-71
2022/05/10 03:14:27;;;;;;;2.33;1.70;;;21.20;47.40;;;;;;5102629;28;20044;-72
2022/05/10 03:16:52;;;;;;;3.28;1.80;;;21.10;47.30;;;;;;5070304;28;20431;-73
2022/05/10 03:19:18;;;;;;;4.38;1.88;;;21.10;47.30;;;;;;5088906;28;20883;-72
2022/05/10 03:21:44;;;;;;;4.57;2.40;;;21.10;47.30;;;;;;5067890;28;20525;-80
2022/05/10 03:24:09;;;;;;;2.78;1.90;;;21.10;47.30;;;;;;5097413;28;20044;-70
2022/05/10 03:26:35;;;;;;;4.18;1.85;;;21.10;47.30;;;;;;5106150;28;20044;-70
2022/05/10 03:29:02;;;;;;;3.05;1.90;;;21.10;47.40;;;;;;5101913;28;20051;-74
2022/05/10 03:31:28;;;;;;;2.75;1.92;;;21.10;47.40;;;;;;5100722;28;20036;-73
2022/05/10 03:36:38;;;;;;;2.63;2.17;;;21.10;47.50;;;;;;5113543;27;20396;-73
2022/05/10 03:39:05;;;;;;;3.42;2.00;;;21.10;47.50;;;;;;5092290;28;20046;-70
2022/05/10 03:41:31;;;;;;;3.88;2.20;;;21.10;47.60;;;;;;5106225;28;20904;-74
2022/05/10 03:43:57;;;;;;;2.88;1.98;;;21.10;47.50;;;;;;5101899;28;20055;-69
2022/05/10 03:46:22;;;;;;;3.70;2.10;;;21.10;47.50;;;;;;5070168;28;20051;-70
2022/05/10 03:48:49;;;;;;;2.75;2.08;;;21.10;47.60;;;;;;5090771;28;20534;-73
2022/05/10 03:51:15;;;;;;;3.83;2.00;;;21.10;47.60;;;;;;5085164;28;20062;-70
2022/05/10 03:53:41;;;;;;;2.97;2.20;;;21.10;47.60;;;;;;5091143;28;20047;-70
2022/05/10 03:56:07;;;;;;;5.57;2.00;;;21.10;47.70;;;;;;5105228;28;20044;-70
2022/05/10 03:58:33;;;;;;;3.55;2.13;;;21.10;47.60;;;;;;5102126;28;20525;-70
2022/05/10 04:00:59;;;;;;;3.42;2.10;;;21.10;47.70;;;;;;5104106;28;20047;-72
2022/05/10 04:03:24;;;;;;;6.40;2.30;;;21.10;47.70;;;;;;5104356;28;20036;-71
2022/05/10 04:05:50;;;;;;;2.10;1.63;;;21.10;47.70;;;;;;5100319;28;20048;-73
2022/05/10 04:08:15;;;;;;;3.72;2.20;;;21.10;47.80;;;;;;5086229;28;20059;-72
2022/05/10 04:10:42;;;;;;;3.03;2.10;;;21.00;47.70;;;;;;5102277;28;20048;-71
2022/05/10 04:13:09;;;;;;;3.67;2.00;;;21.10;47.80;;;;;;5102768;28;20051;-70
2022/05/10 04:15:35;;;;;;;3.23;1.90;;;21.00;47.70;;;;;;5100730;27;20131;-71
2022/05/10 04:18:00;;;;;;;3.67;2.17;;;21.00;47.80;;;;;;5075626;28;20126;-70
2022/05/10 04:20:26;;;;;;;2.80;2.03;;;21.10;47.90;;;;;;5080582;28;20035;-79
2022/05/10 04:22:51;;;;;;;4.10;2.10;;;21.10;47.90;;;;;;5082586;28;20062;-69
2022/05/10 04:25:18;;;;;;;4.00;2.08;;;21.00;47.80;;;;;;5105396;28;20162;-77
2022/05/10 04:27:44;;;;;;;3.22;2.13;;;21.00;47.80;;;;;;5108688;28;20093;-78
2022/05/10 04:30:10;;;;;;;3.03;1.98;;;21.00;47.80;;;;;;5103479;28;20052;-76
2022/05/10 04:32:38;;;;;;;6.45;1.95;;;21.00;47.80;;;;;;5095465;28;20135;-77
2022/05/10 04:35:05;;;;;;;4.38;2.10;;;21.00;47.80;;;;;;5096667;28;20036;-70
2022/05/10 04:37:30;;;;;;;3.28;1.88;;;21.00;47.90;;;;;;5108960;28;20071;-71
2022/05/10 04:42:44;;;;;;;3.17;2.30;;;21.00;47.80;;;;;;5123035;27;20048;-69
2022/05/10 04:45:10;;;;;;;2.63;2.03;;;21.00;47.80;;;;;;5099380;28;20376;-70
2022/05/10 04:47:36;;;;;;;3.35;1.95;;;21.00;47.80;;;;;;5092295;28;20079;-70
2022/05/10 04:50:01;;;;;;;4.40;2.13;;;21.00;47.80;;;;;;5102158;28;20085;-71
2022/05/10 04:52:27;;;;;;;3.47;2.10;;;21.00;47.80;;;;;;5110078;28;20039;-75
2022/05/10 04:54:52;;;;;;;3.42;2.10;;;21.00;47.80;;;;;;5101353;28;20398;-72
2022/05/10 04:57:18;;;;;;;5.05;2.63;;;21.00;47.90;;;;;;5091383;28;20043;-70
2022/05/10 04:59:43;;;;;;;3.65;2.20;;;21.00;47.80;;;;;;5112761;27;20047;-71
2022/05/10 05:02:09;;;;;;;3.85;2.20;;;21.00;47.80;;;;;;5067989;28;20048;-73
2022/05/10 05:04:35;;;;;;;3.63;2.20;;;21.00;47.80;;;;;;5099518;28;20035;-70
2022/05/10 05:07:00;;;;;;;2.60;2.00;;;21.00;47.80;;;;;;5090675;28;20040;-72
2022/05/10 05:09:26;;;;;;;3.08;2.03;;;21.00;47.90;;;;;;5103499;28;20048;-71
2022/05/10 05:11:51;;;;;;;3.90;2.20;;;21.00;47.80;;;;;;5109274;28;20486;-75
2022/05/10 05:14:17;;;;;;;3.25;2.25;;;21.00;47.80;;;;;;5082124;28;20089;-69
2022/05/10 05:16:43;;;;;;;2.30;1.90;;;21.00;47.80;;;;;;5107063;28;20035;-70
2022/05/10 05:19:08;;;;;;;2.60;2.13;;;21.00;47.80;;;;;;5086838;28;20596;-71
2022/05/10 05:21:34;;;;;;;4.38;2.03;;;21.00;47.80;;;;;;5084895;28;20041;-70
2022/05/10 05:23:59;;;;;;;2.83;2.00;;;21.00;47.80;;;;;;5091754;28;20040;-71
2022/05/10 05:26:25;;;;;;;2.50;2.05;;;21.00;47.80;;;;;;5104004;28;20044;-71
2022/05/10 05:28:51;;;;;;;3.03;2.22;;;21.00;47.80;;;;;;5107014;28;20134;-71
2022/05/10 05:31:17;;;;;;;5.15;2.20;;;21.00;47.80;;;;;;5100897;28;20040;-70
2022/05/10 05:33:43;;;;;;;2.75;2.35;;;21.00;47.80;;;;;;5086933;28;20044;-70
2022/05/10 05:36:08;;;;;;;4.68;2.50;;;21.00;47.80;;;;;;5096593;28;20031;-70
2022/05/10 05:38:34;;;;;;;4.47;2.15;;;21.00;47.80;;;;;;5108293;28;20082;-71
2022/05/10 05:41:01;;;;;;;3.28;2.25;;;21.00;47.80;;;;;;5102809;28;20094;-69
2022/05/10 05:43:27;;;;;;;3.88;2.30;;;21.00;47.80;;;;;;5106406;28;20028;-76
2022/05/10 05:45:53;;;;;;;3.58;2.20;;;21.00;47.90;;;;;;5085370;28;20104;-71
2022/05/10 05:48:19;;;;;;;4.28;2.55;;;21.00;47.90;;;;;;5086923;28;20040;-69
2022/05/10 05:50:45;;;;;;;3.33;2.30;;;21.00;47.80;;;;;;5091584;28;20131;-69
2022/05/10 05:53:11;;;;;;;4.88;2.15;;;21.00;47.80;;;;;;5108879;28;20122;-69
2022/05/10 05:55:37;;;;;;;2.90;2.15;;;21.00;47.80;;;;;;5105454;28;20066;-70
2022/05/10 05:58:03;;;;;;;2.88;2.25;;;21.00;47.80;;;;;;5105889;28;20054;-70
2022/05/10 06:00:29;;;;;;;3.33;2.30;;;21.00;47.80;;;;;;5098492;28;20495;-76
2022/05/10 06:02:55;;;;;;;3.83;2.30;;;21.00;47.80;;;;;;5093311;28;20063;-74
2022/05/10 06:05:22;;;;;;;3.70;2.17;;;21.00;47.80;;;;;;5082787;28;20040;-72
2022/05/10 06:07:48;;;;;;;3.67;2.40;;;21.00;47.80;;;;;;5086315;28;20131;-74
2022/05/10 06:10:14;;;;;;;3.03;2.33;;;21.00;47.80;;;;;;5120915;27;20062;-69
2022/05/10 06:12:41;;;;;;;4.32;2.38;;;21.10;48.00;;;;;;5087997;28;20028;-68
2022/05/10 06:15:11;;;;;;;5.97;2.45;;;21.10;48.30;;;;;;5064431;28;20048;-71
2022/05/10 06:17:39;;;;;;;3.53;2.28;;;21.10;48.40;;;;;;5066851;28;20108;-73
2022/05/10 06:20:07;;;;;;;4.87;2.43;;;21.10;48.60;;;;;;5080697;28;20072;-76
2022/05/10 06:22:34;;;;;;;3.78;2.35;;;21.10;48.70;;;;;;5085774;28;20643;-75
2022/05/10 06:24:59;;;;;;;4.10;2.42;;;21.10;48.80;;;;;;5080463;28;20075;-70
2022/05/10 06:27:25;;;;;;;8.85;2.78;;;21.10;48.80;;;;;;5084578;28;20144;-70
2022/05/10 06:29:51;;;;;;;5.10;2.88;;;21.10;48.80;;;;;;5087283;28;20055;-71
2022/05/10 06:32:25;;;;;;;4.65;2.30;;;21.20;49.00;;;;;;5083234;28;20040;-72
2022/05/10 06:34:52;;;;;;;4.53;2.65;;;21.20;49.10;;;;;;5064868;28;20032;-70
2022/05/10 06:40:11;;;;;;;5.05;2.58;;;21.20;49.20;;;;;;5074711;28;20056;-69
2022/05/10 06:42:38;;;;;;;4.95;2.60;;;21.30;49.20;;;;;;5070059;28;20465;-69
2022/05/10 06:45:09;;;;;;;5.78;2.90;;;21.30;49.20;;;;;;5081697;28;20048;-69
2022/05/10 06:47:37;;;;;;;3.92;2.38;;;21.30;49.30;;;;;;5081837;28;20039;-69
2022/05/10 06:50:04;;;;;;;4.18;2.60;;;21.40;49.30;;;;;;5075761;28;20440;-68
2022/05/10 06:52:30;;;;;;;7.55;2.70;;;21.40;49.30;;;;;;5083143;28;20040;-76
2022/05/10 06:54:57;;;;;;;4.20;2.70;;;21.40;49.30;;;;;;5080464;28;20090;-71
2022/05/10 06:57:22;;;;;;;4.35;2.42;;;21.50;49.50;;;;;;5115372;27;20503;-72
2022/05/10 06:59:53;;;;;;;4.45;2.55;;;21.50;49.50;;;;;;5082592;28;20121;-71
2022/05/10 07:02:19;;;;;;;5.07;2.55;;;21.50;49.60;;;;;;5086951;28;20050;-73
2022/05/10 07:04:45;;;;;;;3.92;2.78;;;21.50;49.60;;;;;;5080766;28;21631;-70
2022/05/10 07:07:11;;;;;;;5.07;2.58;;;21.50;49.70;;;;;;5086661;28;20052;-72
2022/05/10 07:09:36;;;;;;;4.72;2.45;;;21.60;49.80;;;;;;5082306;28;20075;-72
2022/05/10 07:12:02;;;;;;;4.50;2.85;;;21.60;49.80;;;;;;5085249;28;20075;-68
2022/05/10 07:14:28;;;;;;;5.68;2.60;;;21.60;49.70;;;;;;5090614;28;20429;-69
2022/05/10 07:16:53;;;;;;;6.72;2.97;;;21.60;49.60;;;;;;5106470;27;20055;-69
2022/05/10 07:19:19;;;;;;;3.53;2.35;;;21.60;49.50;;;;;;5075683;28;20044;-69
2022/05/10 07:21:46;;;;;;;3.85;2.40;;;21.70;49.50;;;;;;5074107;28;20044;-69
2022/05/10 07:24:11;;;;;;;6.60;2.78;;;21.70;49.50;;;;;;5074970;28;20558;-69
2022/05/10 07:26:40;;;;;;;5.28;2.33;;;21.70;49.40;;;;;;5066899;28;20040;-69
2022/05/10 07:29:06;;;;;;;2.88;2.13;;;21.80;49.40;;;;;;5105894;27;20696;-69
2022/05/10 07:31:31;;;;;;;5.30;2.78;;;21.90;49.40;;;;;;5074542;28;20559;-70
2022/05/10 07:33:57;;;;;;;3.40;2.40;;;21.90;49.20;;;;;;5069547;28;20109;-69
2022/05/10 07:36:25;;;;;;;4.40;2.40;;;22.00;50.00;;;;;;5078029;28;20040;-68
2022/05/10 07:38:54;;;;;;;;;;;22.00;49.20;;;;;;5068819;28;20068;-70
2022/05/10 07:41:23;;;;;;;9.68;2.30;;;22.00;49.10;;;;;;5075535;28;20633;-71
2022/05/10 07:43:50;;;;;;;6.35;2.95;;;22.10;49.10;;;;;;5076004;28;20165;-75
2022/05/10 07:46:17;;;;;;;3.80;2.30;;;22.10;49.10;;;;;;5077686;28;20089;-70
2022/05/10 07:48:43;;;;;;;6.30;2.30;;;22.10;49.10;;;;;;5086493;28;20464;-70
2022/05/10 07:51:09;;;;;;;3.42;2.55;;;22.20;49.10;;;;;;5080782;28;20120;-72
2022/05/10 07:53:36;;;;;;;3.38;2.45;;;22.20;49.10;;;;;;5110411;27;20499;-72
2022/05/10 07:56:02;;;;;;;5.45;2.40;;;22.20;48.90;;;;;;5073312;28;20044;-70
2022/05/10 07:58:29;;;;;;;3.50;2.30;;;22.30;49.00;;;;;;5081352;28;20139;-71
2022/05/10 08:00:56;;;;;;;6.90;2.58;;;22.30;49.00;;;;;;5079803;28;20395;-74
2022/05/10 08:03:24;;;;;;;5.10;2.42;;;22.40;48.90;;;;;;5084736;28;20355;-70
2022/05/10 08:05:50;;;;;;;4.38;2.63;;;22.40;49.60;;;;;;5077313;28;20067;-69
2022/05/10 08:08:19;;;;;;;4.70;2.60;;;22.40;48.60;;;;;;5086933;28;20052;-67
2022/05/10 08:10:46;;;;;;;5.47;2.70;;;22.40;48.60;;;;;;5107698;28;20048;-69
2022/05/10 08:13:17;;;;;;;7.03;2.70;;;22.40;48.60;;;;;;5086372;28;20040;-70
2022/05/10 08:15:43;;;;;;;5.80;2.70;;;22.50;48.60;;;;;;5119136;27;20039;-70
2022/05/10 08:18:09;;;;;;;5.57;2.67;;;22.50;48.50;;;;;;5081713;28;20044;-73
2022/05/10 08:20:35;;;;;;;4.50;2.80;;;22.50;48.50;;;;;;5080841;28;20047;-71
2022/05/10 08:23:01;;;;;;;7.63;2.50;;;22.50;48.40;;;;;;5068424;28;20050;-73
2022/05/10 08:25:27;;;;;;;4.80;2.65;;;22.50;48.30;;;;;;5087001;28;21493;-74
2022/05/10 08:27:53;;;;;;;5.82;2.90;;;22.60;48.40;;;;;;5063202;28;20046;-71
2022/05/10 08:30:18;;;;;;;5.90;2.17;;;22.60;48.20;;;;;;5088245;28;20055;-75
2022/05/10 08:32:44;;;;;;;5.20;2.60;;;22.60;48.10;;;;;;5091497;28;20526;-77
2022/05/10 08:35:10;;;;;;;8.52;2.65;;;22.60;48.10;;;;;;5085305;28;20052;-76
2022/05/10 08:37:37;;;;;;;3.25;2.47;;;22.70;48.10;;;;;;5084738;28;20065;-74
2022/05/10 08:40:23;;;;;;;4.97;2.58;;;22.70;48.00;;;;;;5085507;28;20051;-77
2022/05/10 08:42:54;;;;;;;5.93;2.55;;;22.80;48.00;;;;;;5082065;28;20113;-70
2022/05/10 08:45:21;;;;;;;5.43;2.60;;;22.70;47.90;;;;;;5070219;28;20800;-72
2022/05/10 08:47:47;;;;;;;6.03;2.75;;;22.70;47.90;;;;;;5082432;28;20123;-70
2022/05/10 08:50:13;;;;;;;5.50;2.55;;;22.70;47.80;;;;;;5080708;28;20100;-78
2022/05/10 08:52:45;;;;;;;7.30;2.60;;;22.70;47.80;;;;;;5085547;28;20040;-75
2022/05/10 08:55:13;;;;;;;5.05;2.67;;;22.70;47.70;;;;;;5083609;28;20056;-77
2022/05/10 08:57:54;;;;;;;6.07;2.60;;;22.70;47.70;;;;;;5088014;28;20410;-76
2022/05/10 09:00:27;;;;;;;4.68;2.45;;;22.70;47.60;;;;;;5084651;28;20044;-76
2022/05/10 09:02:55;;;;;;;3.42;2.40;;;22.70;47.60;;;;;;5082660;28;20554;-78
2022/05/10 09:05:33;;;;;;;;;;;22.70;47.60;;;;;;5083351;28;20421;-76
2022/05/10 09:08:13;;;;;;;7.03;2.80;;;22.70;47.50;;;;;;5063016;28;19924;-73
2022/05/10 09:10:56;;;;;;;4.28;2.28;;;22.70;47.60;;;;;;5081475;28;20156;-77
2022/05/10 09:13:23;;;;;;;6.75;2.83;;;22.70;47.60;;;;;;5085346;28;20044;-79
2022/05/10 09:16:20;;;;;;;5.18;2.90;;;22.70;47.60;;;;;;5087996;28;20042;-75
2022/05/10 09:18:46;;;;;;;6.32;2.85;;;22.70;47.50;;;;;;5089397;28;20043;-75
2022/05/10 09:21:23;;;;;;;4.63;2.90;;;22.70;47.50;;;;;;5084865;28;20048;-78
2022/05/10 09:24:03;;;;;;;11.70;3.03;;;22.70;47.50;;;;;;5084006;28;20430;-74
2022/05/10 09:26:46;;;;;;;5.15;2.70;;;22.70;47.50;;;;;;5111845;27;20104;-76
2022/05/10 09:29:31;;;;;;;6.97;2.83;;;22.70;47.50;;;;;;5086064;28;20420;-77
2022/05/10 09:34:53;;;;;;;9.68;2.90;;;22.70;48.30;;;;;;5083819;28;20131;-77
2022/05/10 09:37:28;;;;;;;4.70;2.80;;;22.70;47.60;;;;;;5092985;28;20048;-75
2022/05/10 09:39:57;;;;;;;6.10;2.67;;;22.70;47.60;;;;;;5072639;28;20052;-79
2022/05/10 09:42:33;;;;;;;12.27;3.00;;;22.70;47.60;;;;;;5088907;28;20051;-74
2022/05/10 09:45:14;;;;;;;10.82;2.88;;;22.70;47.80;;;;;;5083451;28;20052;-74
2022/05/10 09:47:52;;;;;;;7.97;2.92;;;22.70;48.00;;;;;;5083949;28;20048;-72
2022/05/10 09:50:21;;;;;;;8.50;3.08;;;22.70;48.30;;;;;;5083988;28;20043;-72
2022/05/10 09:52:47;;;;;;;6.55;2.88;;;22.70;48.40;;;;;;5088470;28;20032;-75
2022/05/10 09:55:33;;;;;;;5.60;2.72;;;22.80;48.60;;;;;;5065302;28;20048;-73
2022/05/10 09:58:16;;;;;;;10.98;3.55;;;22.80;48.80;;;;;;5082401;28;20133;-73
2022/05/10 10:00:52;;;;;;;6.00;3.05;;;22.80;48.80;;;;;;5082395;28;20064;-71
2022/05/10 10:03:26;;;;;;;7.80;3.17;;;22.80;48.90;;;;;;5089856;28;20044;-71
2022/05/10 10:05:56;;;;;;;8.48;3.20;;;22.80;49.00;;;;;;5081745;28;20573;-71
2022/05/10 10:08:44;;;;;;;5.22;2.60;;;22.90;49.20;;;;;;5091060;28;20035;-70
2022/05/10 10:11:12;;;;;;;7.22;3.10;;;22.90;49.10;;;;;;5083087;28;20059;-70
2022/05/10 10:13:40;;;;;;;5.03;3.10;;;22.90;49.10;;;;;;5083243;28;20483;-76
2022/05/10 10:16:20;;;;;;;6.15;3.10;;;22.90;49.20;;;;;;5083364;28;20044;-72
2022/05/10 10:18:49;;;;;;;6.03;3.00;;;22.90;49.10;;;;;;5087747;28;20066;-72
2022/05/10 10:21:37;;;;;;;6.28;3.30;;;22.90;48.80;;;;;;5082456;28;20067;-70
2022/05/10 10:24:04;;;;;;;10.50;3.20;;;22.90;49.00;;;;;;5085611;28;20123;-71
2022/05/10 10:26:42;;;;;;;11.35;3.47;;;22.90;49.00;;;;;;5084983;28;20043;-70
2022/05/10 10:29:17;;;;;;;5.25;3.00;;;22.90;49.10;;;;;;5067597;28;20091;-71
2022/05/10 10:32:01;;;;;;;5.85;3.28;;;22.90;49.20;;;;;;5089040;28;20487;-72
2022/05/10 10:35:04;;;;;;;10.40;3.10;;;23.00;49.20;;;;;;5082662;28;20048;-72
2022/05/10 10:37:41;;;;;;;8.50;3.10;;;23.00;49.30;;;;;;5035731;28;20072;-71
2022/05/10 10:40:10;;;;;;;7.88;3.35;;;23.00;49.00;;;;;;5071157;28;20040;-72
2022/05/10 10:42:51;;;;;;;6.97;3.55;;;23.00;48.90;;;;;;5420505;22;20239;-69
2022/05/10 10:45:18;;;;;;;6.45;3.28;;;23.00;48.60;;;;;;5018325;28;20087;-71
2022/05/10 10:47:59;;;;;;;9.82;3.40;;;23.00;48.50;;;;;;5020887;28;20044;-70
2022/05/10 10:50:28;;;;;;;5.55;3.10;;;23.10;48.50;;;;;;5016980;28;20045;-70
2022/05/10 10:52:57;;;;;;;8.52;3.13;;;23.00;48.60;;;;;;5024069;28;20057;-70
2022/05/10 10:55:44;;;;;;;14.93;3.63;;;23.10;48.70;;;;;;5006564;28;20148;-71
2022/05/10 10:58:27;;;;;;;11.25;3.58;;;23.10;48.80;;;;;;5005955;28;20041;-69
2022/05/10 11:01:22;;;;;;;7.00;3.25;;;23.10;48.80;;;;;;5013375;28;20076;-71
2022/05/10 11:04:15;;;;;;;8.02;3.05;;;23.10;48.70;;;;;;5019448;28;20057;-76
2022/05/10 11:06:51;;;;;;;6.85;3.20;;;23.10;48.80;;;;;;5022621;28;20068;-76
2022/05/10 11:09:35;;;;;;;8.63;3.38;;;23.20;48.90;;;;;;5016582;28;20129;-70
2022/05/10 11:12:39;;;;;;;7.47;2.83;;;23.20;48.90;;;;;;5030934;28;20471;-72
2022/05/10 11:15:07;;;;;;;8.13;3.35;;;23.20;48.90;;;;;;5017265;28;20440;-71
2022/05/10 11:17:50;;;;;;;;;;;23.10;48.80;;;;;;5023357;28;20102;-70
2022/05/10 11:20:34;;;;;;;8.70;3.08;;;23.10;49.00;;;;;;5012638;28;19993;-71
2022/05/10 11:23:07;;;;;;;5.43;3.40;;;23.10;48.70;;;;;;5025750;28;20038;-73
2022/05/10 11:25:58;;;;;;;13.60;3.38;;;23.10;48.80;;;;;;5024924;28;20061;-73
2022/05/10 11:28:31;;;;;;;11.50;3.35;;;23.10;49.00;;;;;;5004329;28;20048;-72
2022/05/10 11:31:32;;;;;;;8.30;3.00;;;23.10;49.00;;;;;;5022579;28;20063;-71
2022/05/10 11:34:01;;;;;;;14.07;3.47;;;23.10;49.20;;;;;;4959794;28;20519;-73
2022/05/10 11:36:39;;;;;;;;;;;23.00;49.00;;;;;;5005289;28;20050;-74
2022/05/10 11:39:16;;;;;;;13.38;3.72;;;23.10;48.80;;;;;;5000245;28;19924;-71
2022/05/10 11:42:06;;;;;;;20.30;4.00;;;23.10;48.90;;;;;;5023154;28;20046;-74
2022/05/10 11:45:14;;;;;;;10.60;3.80;;;23.00;48.80;;;;;;4981765;28;20857;-75
2022/05/10 11:48:09;;;;;;;13.57;4.65;;;23.10;48.50;;;;;;5002148;28;20136;-77
2022/05/10 11:53:41;;;;;;;5.68;3.83;;;23.10;48.50;;;;;;5020158;28;20045;-73
2022/05/10 11:56:08;;;;;;;7.78;3.33;;;23.10;48.50;;;;;;5007464;28;20107;-72
2022/05/10 11:58:35;;;;;;;8.07;3.72;;;23.10;48.30;;;;;;5023857;28;20124;-73
2022/05/10 12:01:04;;;;;;;8.95;3.25;;;23.10;48.30;;;;;;5023256;28;20397;-75
2022/05/10 12:03:36;;;;;;;11.02;3.38;;;23.20;48.20;;;;;;5006102;28;20049;-74
2022/05/10 12:06:23;;;;;;;8.90;3.15;;;23.20;48.30;;;;;;5024571;28;20049;-75
2022/05/10 12:08:57;;;;;;;4.68;3.28;;;23.20;48.20;;;;;;5023554;28;20052;-75
2022/05/10 12:11:30;;;;;;;6.15;3.50;;;23.20;48.10;;;;;;5007840;28;20057;-76
2022/05/10 12:22:19;;;;;;;6.18;4.03;;;23.40;47.70;;;;;;5032384;28;20049;-78
2022/05/10 12:24:47;;;;;;;;;;;23.40;47.70;;;;;;5017708;28;20505;-76
2022/05/10 12:27:12;;;;;;;12.20;3.97;;;23.40;47.70;;;;;;5002755;28;19940;-77
2022/05/10 12:29:38;;;;;;;6.25;3.72;;;23.40;47.80;;;;;;5019072;28;20050;-78
2022/05/10 12:32:10;;;;;;;9.05;4.10;;;23.40;47.60;;;;;;5022283;28;20053;-72
2022/05/10 12:34:55;;;;;;;12.57;4.65;;;23.40;47.60;;;;;;5022212;28;20445;-73
2022/05/10 12:37:26;;;;;;;8.25;4.43;;;23.40;47.60;;;;;;5018253;28;20058;-71
2022/05/10 12:40:14;;;;;;;5.82;4.38;;;23.40;47.70;;;;;;5022668;28;20524;-75
2022/05/10 12:42:51;;;;;;;;;;;23.30;47.80;;;;;;5013582;28;20137;-73
2022/05/10 12:45:55;;;;;;;8.00;4.63;;;23.30;47.80;;;;;;5028759;28;19956;-78
2022/05/10 12:48:45;;;;;;;6.10;4.25;;;23.30;47.90;;;;;;5002015;28;20057;-71
2022/05/10 12:51:41;;;;;;;6.53;4.70;;;23.30;47.90;;;;;;5043058;28;20037;-78
2022/05/10 12:54:07;;;;;;;7.53;4.53;;;23.30;48.00;;;;;;4996120;28;20045;-74
2022/05/10 12:57:06;;;;;;;7.55;4.93;;;23.30;48.00;;;;;;5020930;28;20504;-73
2022/05/10 12:59:44;;;;;;;6.53;4.53;;;23.30;48.10;;;;;;5027959;28;20389;-74
2022/05/10 13:02:13;;;;;;;6.60;4.78;;;23.30;48.20;;;;;;5024183;28;20124;-71
2022/05/10 13:04:41;;;;;;;;;;;23.20;48.00;;;;;;5007688;28;20096;-72
2022/05/10 13:07:26;;;;;;;5.32;4.40;;;23.20;48.20;;;;;;5026630;28;20597;-71
2022/05/10 13:10:01;;;;;;;6.32;4.60;;;23.20;48.20;;;;;;5026152;28;20056;-72
2022/05/10 13:12:39;;;;;;;8.73;4.45;;;23.20;48.20;;;;;;5026059;28;20037;-73
2022/05/10 13:15:14;;;;;;;6.38;4.88;;;23.20;48.20;;;;;;5022208;28;20077;-71
2022/05/10 13:17:45;;;;;;;9.27;4.40;;;23.20;48.20;;;;;;5024647;28;20095;-73
2022/05/10 13:20:12;;;;;;;8.45;4.70;;;23.20;48.20;;;;;;5011464;28;20056;-76
2022/05/10 13:22:48;;;;;;;5.57;4.70;;;23.20;48.20;;;;;;5024755;28;20116;-74
2022/05/10 13:25:14;;;;;;;7.82;4.70;;;23.20;48.30;;;;;;5025018;28;20061;-72
2022/05/10 13:27:42;;;;;;;8.68;4.60;;;23.10;48.20;;;;;;5027467;28;20407;-72
2022/05/10 13:30:16;;;;;;;7.60;4.75;;;23.10;48.20;;;;;;5022750;28;20064;-74
2022/05/10 13:32:48;;;;;;;8.48;4.65;;;23.10;48.20;;;;;;5027754;28;20085;-77
2022/05/10 13:35:35;;;;;;;10.48;4.72;;;23.10;48.20;;;;;;5021226;28;20054;-76
2022/05/10 13:38:19;;;;;;;10.77;4.30;;;23.10;48.20;;;;;;5026412;28;20053;-73
2022/05/10 13:40:47;;;;;;;8.10;4.65;;;23.10;48.30;;;;;;5009090;28;20638;-73